Time;durP1;ratioP1;P1;durP2;ratioP2;P2;SDS_P1;SDS_P2;PMS_P1;PMS_P2;Temp;Humidity;BMP_temperature;BMP_pressure;BME280_temperature;BME280_humidity;BME280_pressure;Samples;Min_cycle;Max_cycle;Signal;HPM_P1;HPM_P2
2023/02/08 15:57:53;;;;;;;0.80;0.80;;;0.30;63.10;;;0.07;53.63;96901.78;5068557;28;20573;-25
2023/02/08 16:00:30;;;;;;;0.90;0.90;;;0.90;65.60;;;0.21;53.22;96899.31;5048069;28;20207;-33
2023/02/08 16:03:17;;;;;;;0.88;0.88;;;1.30;64.60;;;0.27;52.52;96906.75;5048369;28;20208;-35
2023/02/08 16:05:53;;;;;;;0.82;0.82;;;1.60;64.30;;;0.27;52.54;96900.75;5060322;28;20223;-25
2023/02/08 16:08:24;;;;;;;0.80;0.80;;;1.80;63.60;;;0.23;52.70;96897.50;5027771;28;20192;-28
2023/02/08 16:11:11;;;;;;;0.73;0.73;;;1.80;63.40;;;0.20;52.14;96897.66;5044069;28;20521;-28
2023/02/08 16:13:45;;;;;;;0.80;0.80;;;1.90;63.20;;;0.12;52.22;96898.06;5044169;28;20222;-28
2023/02/08 16:16:37;;;;;;;0.80;0.80;;;1.80;63.00;;;0.07;51.89;96901.78;5044161;28;20199;-26
2023/02/08 16:19:18;;;;;;;0.80;0.80;;;1.80;62.90;;;-0.01;52.48;96910.72;5028883;28;20181;-27
2023/02/08 16:21:45;;;;;;;0.80;0.80;;;1.80;63.00;;;-0.07;52.38;96910.22;5028314;28;20181;-24
2023/02/08 16:24:12;;;;;;;0.90;0.90;;;1.70;62.70;;;-0.11;52.47;96912.09;5028888;28;20189;-32
2023/02/08 16:26:44;;;;;;;0.80;0.80;;;1.60;62.80;;;-0.12;52.43;96909.59;5028264;28;20282;-30
2023/02/08 16:29:28;;;;;;;0.80;0.80;;;1.60;62.80;;;-0.18;52.51;96916.72;5028478;28;20188;-31
2023/02/08 16:32:02;;;;;;;0.90;0.90;;;1.50;62.90;;;-0.28;52.65;96915.50;5028377;28;20261;-31
2023/02/08 16:34:36;;;;;;;0.95;0.95;;;1.50;63.00;;;-0.37;52.56;96915.94;5028267;28;20248;-30
2023/02/08 16:37:05;;;;;;;0.95;0.95;;;1.40;63.00;;;-0.45;52.86;96921.50;5027366;28;20189;-31
2023/02/08 16:39:50;;;;;;;0.70;0.70;;;1.30;62.90;;;-0.57;53.14;96915.16;5028930;28;20201;-30
2023/02/08 16:42:43;;;;;;;0.70;0.70;;;1.20;63.00;;;-0.65;52.98;96917.28;5045136;28;20544;-32
2023/02/08 16:45:15;;;;;;;0.80;0.80;;;1.20;63.10;;;-0.74;53.16;96913.38;5027677;28;20216;-31
2023/02/08 16:47:56;;;;;;;0.80;0.80;;;1.10;63.10;;;-0.83;52.83;96918.97;5027945;28;20252;-29
2023/02/08 16:50:32;;;;;;;0.80;0.80;;;1.00;63.00;;;-0.89;52.90;96917.53;5028714;28;20181;-25
2023/02/08 16:53:02;;;;;;;0.90;0.90;;;0.90;63.00;;;-0.97;52.93;96917.84;5048371;28;20212;-24
2023/02/08 16:55:35;;;;;;;0.90;0.90;;;0.90;63.10;;;-1.02;52.97;96911.28;5063624;27;20263;-25
2023/02/08 16:58:02;;;;;;;0.80;0.80;;;0.80;63.00;;;-1.09;53.03;96905.56;5026572;28;20204;-33
2023/02/08 17:00:33;;;;;;;0.85;0.85;;;0.80;63.00;;;-1.15;53.14;96905.84;5029205;28;20205;-36
2023/02/08 17:03:00;;;;;;;0.80;0.80;;;0.70;63.20;;;-1.20;53.25;96915.50;5032431;28;20205;-34
2023/02/08 17:05:31;;;;;;;0.80;0.80;;;0.60;63.10;;;-1.26;53.60;96918.38;5034771;28;20223;-31
2023/02/08 17:07:58;;;;;;;0.90;0.90;;;0.60;63.40;;;-1.32;53.82;96910.03;5024032;28;20208;-34
2023/02/08 17:10:30;;;;;;;0.80;0.80;;;0.50;63.40;;;-1.35;53.86;96911.91;5027333;28;20272;-25
2023/02/08 17:12:59;;;;;;;0.80;0.80;;;0.50;63.50;;;-1.39;54.13;96912.91;5018654;28;20640;-24
2023/02/08 17:15:48;;;;;;;0.90;0.90;;;0.40;63.60;;;-1.45;54.38;96911.47;5015641;28;20197;-25
2023/02/08 17:18:15;;;;;;;0.80;0.80;;;0.40;63.70;;;-1.49;54.14;96915.06;5014069;28;20197;-25
2023/02/08 17:20:43;;;;;;;0.90;0.90;;;0.30;63.60;;;-1.54;54.59;96912.69;5013271;28;20194;-25
2023/02/08 17:23:11;;;;;;;0.80;0.80;;;0.30;63.70;;;-1.56;55.03;96905.94;5014714;28;20185;-26
2023/02/08 17:25:38;;;;;;;0.90;0.90;;;0.30;64.00;;;-1.59;54.88;96901.78;5013700;28;20224;-25
2023/02/08 17:28:17;;;;;;;0.80;0.80;;;0.20;64.20;;;-1.61;54.46;96901.84;5028604;28;20505;-24
2023/02/08 17:30:46;;;;;;;0.85;0.85;;;0.10;64.10;;;-1.62;54.83;96905.31;5029720;28;20616;-24
2023/02/08 17:33:17;;;;;;;0.90;0.90;;;0.10;64.10;;;-1.66;54.66;96898.66;5029739;28;20300;-26
2023/02/08 17:35:51;;;;;;;0.80;0.80;;;0.10;64.20;;;-1.68;54.74;96905.59;5014067;28;20211;-24
2023/02/08 17:38:19;;;;;;;1.00;1.00;;;0.00;64.10;;;-1.73;54.87;96907.53;5014164;28;20593;-24
2023/02/08 17:40:47;;;;;;;0.88;0.88;;;0.00;64.30;;;-1.75;55.08;96900.78;5014090;28;20624;-25
2023/02/08 17:43:14;;;;;;;1.00;1.00;;;0.00;64.40;;;-1.77;54.92;96895.69;5029585;28;20229;-24
2023/02/08 17:45:42;;;;;;;0.90;0.90;;;0.00;64.30;;;-1.78;54.95;96899.19;5013849;28;20213;-25
2023/02/08 17:48:14;;;;;;;0.90;0.90;;;-0.10;64.40;;;-1.81;54.82;96901.88;5014200;28;20194;-25
2023/02/08 17:50:46;;;;;;;0.80;0.80;;;-0.10;64.40;;;-1.84;54.76;96902.03;5014248;28;20217;-24
2023/02/08 17:53:14;;;;;;;0.90;0.90;;;-0.10;64.50;;;-1.87;55.67;96895.25;5014544;28;20182;-26
2023/02/08 17:55:43;;;;;;;0.80;0.80;;;-0.20;64.60;;;-1.88;55.42;96903.03;5013547;28;20233;-25
2023/02/08 17:58:11;;;;;;;0.80;0.80;;;-0.20;64.60;;;-1.89;55.05;96902.22;5029337;28;20205;-31
2023/02/08 18:00:39;;;;;;;0.80;0.80;;;-0.20;64.40;;;-1.91;54.99;96898.03;5029518;28;20193;-26
2023/02/08 18:03:06;;;;;;;0.80;0.80;;;-0.20;64.40;;;-1.94;54.98;96899.84;5029590;28;20288;-25
2023/02/08 18:05:33;;;;;;;0.90;0.90;;;-0.30;64.40;;;-1.96;55.26;96900.78;5013531;28;20224;-25
2023/02/08 18:08:00;;;;;;;0.80;0.80;;;-0.30;64.60;;;-2.01;55.01;96895.84;5013191;28;20210;-34
2023/02/08 18:10:27;;;;;;;0.80;0.80;;;-0.30;64.60;;;-2.05;55.33;96902.03;5013453;28;20549;-26
2023/02/08 18:12:54;;;;;;;0.70;0.70;;;-0.30;64.60;;;-2.07;55.46;96892.72;5014745;28;20201;-37
2023/02/08 18:15:22;;;;;;;0.80;0.80;;;-0.30;64.80;;;-2.08;55.43;96899.56;5013458;28;20632;-35
2023/02/08 18:17:49;;;;;;;0.90;0.90;;;-0.40;64.70;;;-2.11;55.38;96892.00;5013668;28;20197;-35
2023/02/08 18:20:17;;;;;;;0.80;0.80;;;-0.40;64.80;;;-2.16;55.45;96894.75;5013545;28;20226;-26
2023/02/08 18:22:45;;;;;;;0.80;0.80;;;-0.40;64.90;;;-2.19;55.58;96889.72;5013712;28;20220;-34
2023/02/08 18:25:14;;;;;;;0.95;0.95;;;-0.50;64.90;;;-2.20;56.07;96888.06;5013772;28;20205;-35
2023/02/08 18:27:41;;;;;;;0.90;0.90;;;-0.50;65.00;;;-2.22;55.52;96889.88;5028597;28;20197;-33
2023/02/08 18:30:10;;;;;;;0.90;0.90;;;-0.50;64.90;;;-2.23;55.71;96885.63;5013361;28;20195;-35
2023/02/08 18:32:38;;;;;;;0.80;0.80;;;-0.50;65.00;;;-2.25;55.61;96879.72;5013336;28;20276;-23
2023/02/08 18:35:07;;;;;;;0.90;0.90;;;-0.60;64.90;;;-2.28;55.85;96890.13;5028811;28;20655;-25
2023/02/08 18:37:36;;;;;;;0.90;0.90;;;-0.60;65.00;;;-2.30;56.17;96884.22;5013153;28;20193;-24
2023/02/08 18:40:06;;;;;;;0.80;0.80;;;-0.60;65.10;;;-2.32;56.44;96883.44;5013262;28;20208;-24
2023/02/08 18:42:34;;;;;;;0.90;0.90;;;-0.60;65.40;;;-2.33;56.33;96882.59;5012398;28;20186;-24
2023/02/08 18:45:04;;;;;;;0.90;0.90;;;-0.60;65.30;;;-2.32;56.01;96886.00;5013436;28;20212;-25
2023/02/08 18:47:31;;;;;;;0.70;0.70;;;-0.60;65.30;;;-2.35;56.36;96879.25;5013594;28;20213;-33
2023/02/08 18:49:58;;;;;;;0.80;0.80;;;-0.60;65.50;;;-2.35;56.36;96884.41;5013105;28;20221;-26
2023/02/08 18:52:25;;;;;;;0.90;0.90;;;-0.60;65.40;;;-2.38;56.38;96881.97;5013485;28;20193;-28
2023/02/08 18:54:52;;;;;;;0.80;0.80;;;-0.70;65.50;;;-2.38;55.96;96884.53;5013384;28;20224;-26
2023/02/08 18:57:19;;;;;;;0.90;0.90;;;-0.70;65.40;;;-2.38;56.79;96883.69;5012574;28;20260;-33
2023/02/08 18:59:46;;;;;;;0.80;0.80;;;-0.70;65.60;;;-2.37;56.18;96882.78;5028342;28;20201;-26
2023/02/08 19:02:20;;;;;;;0.90;0.90;;;-0.70;65.60;;;-2.40;56.36;96883.75;5012845;28;20202;-25
2023/02/08 19:04:48;;;;;;;0.90;0.90;;;-0.70;65.80;;;-2.42;57.19;96870.97;5013400;28;20221;-25
2023/02/08 19:07:15;;;;;;;0.90;0.90;;;-0.70;66.10;;;-2.39;57.15;96879.44;5012850;28;20274;-35
2023/02/08 19:09:42;;;;;;;0.80;0.80;;;-0.70;66.00;;;-2.38;56.95;96878.53;5012945;28;20193;-33
2023/02/08 19:12:14;;;;;;;0.90;0.90;;;-0.70;66.00;;;-2.37;57.10;96872.50;5028074;28;20199;-25
2023/02/08 19:14:42;;;;;;;0.80;0.80;;;-0.70;66.10;;;-2.38;57.50;96866.56;5013064;28;20273;-33
2023/02/08 19:17:09;;;;;;;0.80;0.80;;;-0.70;66.40;;;-2.36;57.59;96869.88;5027847;28;20205;-36
2023/02/08 19:19:41;;;;;;;0.90;0.90;;;-0.70;66.30;;;-2.35;57.26;96870.72;5027401;28;20692;-31
2023/02/08 19:22:08;;;;;;;0.80;0.80;;;-0.70;66.20;;;-2.36;57.22;96869.88;5012728;28;20194;-33
2023/02/08 19:24:35;;;;;;;0.80;0.80;;;-0.70;66.30;;;-2.38;57.15;96869.13;5013071;28;20648;-32
2023/02/08 19:27:02;;;;;;;0.93;0.93;;;-0.70;66.10;;;-2.41;57.38;96870.06;5012535;28;20232;-32
2023/02/08 19:29:29;;;;;;;0.70;0.70;;;-0.70;66.20;;;-2.41;57.32;96866.66;5012412;28;20653;-32
2023/02/08 19:31:56;;;;;;;0.80;0.80;;;-0.70;66.30;;;-2.41;57.24;96870.06;5012842;28;20310;-24
2023/02/08 19:34:24;;;;;;;0.90;0.90;;;-0.70;66.20;;;-2.43;57.33;96866.72;5012606;28;20197;-33
2023/02/08 19:36:53;;;;;;;0.90;0.90;;;-0.70;66.40;;;-2.44;57.88;96859.06;5012278;28;20197;-36
2023/02/08 19:39:26;;;;;;;0.80;0.80;;;-0.80;66.50;;;-2.44;58.02;96859.91;5012340;28;20202;-33
2023/02/08 19:41:53;;;;;;;0.90;0.90;;;-0.80;66.80;;;-2.45;58.02;96858.25;5012367;28;20298;-32
2023/02/08 19:44:21;;;;;;;0.80;0.80;;;-0.80;66.90;;;-2.47;58.04;96852.31;5012564;28;20620;-25
2023/02/08 19:46:52;;;;;;;0.80;0.80;;;-0.80;66.80;;;-2.45;57.86;96853.09;5012048;28;20317;-24
2023/02/08 19:49:20;;;;;;;0.80;0.80;;;-0.80;66.70;;;-2.48;58.19;96857.53;5012533;28;20273;-25
2023/02/08 19:51:47;;;;;;;0.90;0.90;;;-0.80;66.70;;;-2.50;58.58;96864.47;5012221;28;20258;-24
2023/02/08 19:54:17;;;;;;;0.90;0.90;;;-0.80;66.80;;;-2.51;58.51;96868.78;5027895;28;20254;-33
2023/02/08 19:56:45;;;;;;;0.90;0.90;;;-0.80;67.80;;;-2.51;58.83;96876.47;5011841;28;20275;-24
2023/02/08 19:59:23;;;;;;;0.80;0.80;;;-0.80;67.10;;;-2.48;58.61;96878.09;5011474;28;20205;-35
2023/02/08 20:01:53;;;;;;;0.90;0.90;;;-0.80;67.20;;;-2.49;58.50;96882.41;5012347;28;20194;-25
2023/02/08 20:04:21;;;;;;;0.95;0.95;;;-0.80;67.10;;;-2.51;59.04;96876.47;5012074;28;20182;-24
2023/02/08 20:06:53;;;;;;;0.88;0.88;;;-0.80;67.20;;;-2.50;58.81;96893.56;5010850;28;20216;-24
2023/02/08 20:09:20;;;;;;;1.00;1.00;;;-0.80;67.30;;;-2.48;59.03;96896.06;5012002;28;20217;-25
2023/02/08 20:11:51;;;;;;;1.00;1.00;;;-0.80;67.40;;;-2.49;59.19;96891.81;5027516;28;20193;-36
2023/02/08 20:14:25;;;;;;;0.80;0.80;;;-0.80;67.50;;;-2.48;58.96;96890.94;5011186;28;20604;-30
2023/02/08 20:16:52;;;;;;;0.90;0.90;;;-0.80;67.40;;;-2.47;58.68;96888.28;5011758;28;20570;-31
2023/02/08 20:19:19;;;;;;;0.82;0.82;;;-0.80;67.20;;;-2.49;58.36;96891.81;5027589;28;20205;-25
2023/02/08 20:21:47;;;;;;;0.80;0.80;;;-0.80;67.20;;;-2.51;58.59;96898.78;5010930;28;20263;-33
2023/02/08 20:24:14;;;;;;;0.90;0.90;;;-0.80;67.30;;;-2.54;58.82;96894.56;5011829;28;20215;-32
2023/02/08 20:26:44;;;;;;;0.80;0.80;;;-0.80;67.20;;;-2.57;58.63;96900.69;5011574;28;20218;-24
2023/02/08 20:29:13;;;;;;;1.00;1.00;;;-0.90;67.10;;;-2.61;58.41;96899.13;5012825;28;20193;-35
2023/02/08 20:31:44;;;;;;;0.90;0.90;;;-0.90;67.10;;;-2.63;58.82;96900.94;5012382;28;20212;-26
2023/02/08 20:34:13;;;;;;;1.00;1.00;;;-0.90;67.20;;;-2.66;58.91;96906.19;5030673;28;20189;-26
2023/02/08 20:36:43;;;;;;;0.80;0.80;;;-0.90;67.30;;;-2.68;58.83;96907.16;5014999;28;20197;-34
2023/02/08 20:39:20;;;;;;;1.00;1.00;;;-0.90;67.30;;;-2.72;58.78;96908.16;5015076;28;20186;-33
2023/02/08 20:41:47;;;;;;;0.85;0.85;;;-0.90;67.30;;;-2.74;58.86;96913.38;5015076;28;20215;-31
2023/02/08 20:44:17;;;;;;;0.80;0.80;;;-1.00;67.20;;;-2.77;58.96;96913.47;5015320;28;20223;-33
2023/02/08 20:46:45;;;;;;;0.90;0.90;;;-1.00;67.30;;;-2.79;58.70;96912.72;5014632;28;20245;-35
2023/02/08 20:49:14;;;;;;;0.80;0.80;;;-1.00;67.30;;;-2.81;59.13;96917.06;5015223;28;20593;-24
2023/02/08 20:51:42;;;;;;;0.93;0.93;;;-1.00;67.50;;;-2.82;59.03;96912.81;5014877;28;20186;-25
2023/02/08 20:54:10;;;;;;;0.90;0.90;;;-1.10;67.30;;;-2.84;59.03;96923.16;5030350;28;20338;-26
2023/02/08 20:56:38;;;;;;;1.00;1.00;;;-1.10;67.30;;;-2.87;58.75;96912.16;5014642;28;20233;-32
2023/02/08 20:59:09;;;;;;;0.90;0.90;;;-1.10;67.30;;;-2.90;58.99;96910.56;5014772;28;20197;-33
2023/02/08 21:01:37;;;;;;;0.90;0.90;;;-1.10;67.30;;;-2.95;59.40;96921.00;5030383;28;20174;-32
2023/02/08 21:04:04;;;;;;;0.90;0.90;;;-1.20;67.40;;;-2.94;59.09;96912.41;5014662;28;20234;-32
2023/02/08 21:06:35;;;;;;;0.80;0.80;;;-1.20;67.50;;;-2.96;59.21;96911.63;5014553;28;20216;-32
2023/02/08 21:09:08;;;;;;;0.90;0.90;;;-1.20;67.50;;;-3.00;59.54;96907.50;5015192;28;20181;-25
2023/02/08 21:11:36;;;;;;;0.90;0.90;;;-1.20;68.00;;;-2.98;59.64;96910.00;5015198;28;20278;-35
2023/02/08 21:14:04;;;;;;;0.80;0.80;;;-1.20;68.00;;;-2.97;59.55;96906.56;5013680;28;20193;-24
2023/02/08 21:16:31;;;;;;;0.80;0.80;;;-1.30;68.00;;;-2.97;59.34;96909.13;5014357;28;20198;-26
2023/02/08 21:18:59;;;;;;;0.90;0.90;;;-1.30;67.90;;;-2.97;59.11;96911.69;5014554;28;20212;-26
2023/02/08 21:21:27;;;;;;;0.80;0.80;;;-1.30;67.90;;;-3.00;59.28;96904.09;5014410;28;20198;-27
2023/02/08 21:23:56;;;;;;;0.70;0.70;;;-1.30;67.90;;;-3.01;59.66;96905.00;5030033;28;20223;-32
2023/02/08 21:26:24;;;;;;;0.80;0.80;;;-1.30;68.00;;;-3.03;59.75;96897.34;5014211;28;20241;-25
2023/02/08 21:28:54;;;;;;;1.00;1.00;;;-1.30;68.00;;;-3.03;59.89;96896.53;5014264;28;20230;-25
2023/02/08 21:31:23;;;;;;;0.90;0.90;;;-1.30;67.90;;;-3.04;59.82;96898.25;5014362;28;20190;-25
2023/02/08 21:33:51;;;;;;;0.80;0.80;;;-1.30;67.90;;;-3.04;59.64;96898.25;5014237;28;20194;-26
2023/02/08 21:36:22;;;;;;;0.80;0.80;;;-1.30;67.90;;;-3.05;60.28;96891.47;5013356;28;20232;-25
2023/02/08 21:38:49;;;;;;;0.80;0.80;;;-1.30;67.90;;;-3.04;60.06;96885.41;5014522;28;20209;-25
2023/02/08 21:41:23;;;;;;;0.80;0.80;;;-1.30;68.00;;;-3.05;60.03;96878.63;5014187;28;20223;-35
2023/02/08 21:43:53;;;;;;;0.80;0.80;;;-1.30;68.00;;;-3.05;60.55;96883.75;5014005;28;20666;-33
2023/02/08 21:46:23;;;;;;;0.80;0.80;;;-1.30;68.00;;;-3.07;60.39;96875.28;5014101;28;20188;-34
2023/02/08 21:54:41;;;;;;;0.80;0.80;;;-1.40;68.10;;;-3.07;61.07;96873.53;5014294;28;20182;-34
2023/02/08 21:57:17;;;;;;;0.80;0.80;;;-1.40;68.40;;;-3.05;60.73;96863.22;5013746;28;20316;-33
2023/02/08 21:59:47;;;;;;;0.80;0.80;;;-1.40;68.20;;;-3.03;60.73;96869.09;5013876;28;20224;-37
2023/02/08 22:02:20;;;;;;;0.80;0.80;;;-1.30;68.30;;;-3.04;60.77;96858.91;5014072;28;20256;-26
2023/02/08 22:07:50;;;;;;;0.80;0.80;;;-1.30;68.40;;;-3.06;60.89;96854.66;5014068;28;20237;-25
2023/02/08 22:10:20;;;;;;;0.80;0.80;;;-1.40;68.50;;;-3.06;61.11;96846.13;5013753;28;20190;-32
2023/02/08 22:12:48;;;;;;;1.00;1.00;;;-1.40;68.40;;;-3.06;61.19;96848.72;5013948;28;20557;-33
2023/02/08 22:15:18;;;;;;;0.80;0.80;;;-1.40;68.80;;;-3.06;61.16;96839.25;5013687;28;20205;-29
2023/02/08 22:17:45;;;;;;;0.85;0.85;;;-1.40;68.80;;;-3.03;61.11;96846.00;5013777;28;20186;-23
2023/02/08 22:20:14;;;;;;;0.80;0.80;;;-1.40;69.70;;;-3.04;61.27;96852.03;5014507;28;20541;-23
2023/02/08 22:22:41;;;;;;;0.90;0.90;;;-1.40;68.90;;;-3.04;61.35;96841.75;5013444;28;20190;-23
2023/02/08 22:25:08;;;;;;;1.00;1.00;;;-1.40;69.10;;;-3.01;61.56;96846.78;5013487;28;20201;-23
2023/02/08 22:27:37;;;;;;;0.90;0.90;;;-1.30;69.20;;;-3.03;61.75;96846.00;5028603;28;20293;-24
2023/02/08 22:30:08;;;;;;;0.80;0.80;;;-1.30;69.30;;;-3.02;61.89;96839.97;5013479;28;20581;-23
2023/02/08 22:32:40;;;;;;;0.80;0.80;;;-1.30;69.30;;;-2.99;61.71;96834.75;5012883;28;20195;-24
2023/02/08 22:35:08;;;;;;;0.80;0.80;;;-1.30;69.30;;;-2.98;61.65;96836.41;5028922;28;20238;-34
2023/02/08 22:37:35;;;;;;;1.00;1.00;;;-1.20;69.40;;;-2.99;61.85;96824.47;5013282;28;20207;-31
2023/02/08 22:40:04;;;;;;;1.00;1.00;;;-1.30;69.30;;;-2.97;61.75;96837.25;5028654;28;20201;-24
2023/02/08 22:42:32;;;;;;;0.80;0.80;;;-1.30;69.30;;;-3.00;62.02;96819.38;5013498;28;20522;-24
2023/02/08 22:44:59;;;;;;;0.80;0.80;;;-1.30;69.30;;;-3.01;61.78;96828.81;5013214;28;20206;-25
2023/02/08 22:47:26;;;;;;;0.80;0.80;;;-1.20;69.40;;;-2.99;61.77;96824.47;5013067;28;20220;-33
2023/02/08 22:49:57;;;;;;;0.90;0.90;;;-1.30;69.40;;;-2.99;61.51;96821.91;5013020;28;20640;-26
2023/02/08 22:52:25;;;;;;;0.90;0.90;;;-1.30;69.40;;;-2.99;61.45;96823.63;5013223;28;20178;-33
2023/02/08 22:54:52;;;;;;;0.90;0.90;;;-1.30;69.30;;;-3.02;61.55;96810.91;5012553;28;20193;-36
2023/02/08 22:57:19;;;;;;;0.90;0.90;;;-1.30;69.20;;;-3.03;61.31;96807.50;5011742;28;20272;-36
2023/02/08 22:59:46;;;;;;;0.80;0.80;;;-1.30;69.20;;;-3.07;61.79;96806.78;5013207;28;20511;-33
2023/02/08 23:02:16;;;;;;;0.80;0.80;;;-1.30;69.30;;;-3.06;61.98;96817.91;5012897;28;20198;-31
2023/02/08 23:04:43;;;;;;;1.00;1.00;;;-1.30;69.40;;;-3.06;61.85;96805.91;5013097;28;20304;-35
2023/02/08 23:07:10;;;;;;;0.80;0.80;;;-1.30;69.30;;;-3.07;61.62;96800.81;5012842;28;20213;-35
2023/02/08 23:09:37;;;;;;;0.80;0.80;;;-1.40;69.20;;;-3.07;61.62;96801.66;5013252;28;20198;-35
2023/02/08 23:12:05;;;;;;;0.90;0.90;;;-1.40;69.30;;;-3.07;61.48;96800.81;5012733;28;20190;-32
2023/02/08 23:14:33;;;;;;;0.80;0.80;;;-1.40;69.20;;;-3.09;61.54;96806.03;5012704;28;20201;-33
2023/02/08 23:17:00;;;;;;;0.80;0.80;;;-1.40;69.30;;;-3.12;61.40;96795.03;5012666;28;20538;-32
2023/02/08 23:19:27;;;;;;;0.80;0.80;;;-1.40;69.20;;;-3.12;61.89;96795.88;5012702;28;20250;-32
2023/02/08 23:21:58;;;;;;;0.80;0.80;;;-1.40;69.30;;;-3.11;61.82;96799.28;5012621;28;20190;-34
2023/02/08 23:24:25;;;;;;;0.90;0.90;;;-1.40;69.40;;;-3.11;61.66;96787.28;5027812;28;20726;-36
2023/02/08 23:26:53;;;;;;;0.80;0.80;;;-1.30;69.40;;;-3.12;61.89;96783.03;5012462;28;20671;-33
2023/02/08 23:29:19;;;;;;;0.90;0.90;;;-1.40;69.30;;;-3.12;61.93;96775.34;5012346;28;20209;-35
2023/02/08 23:31:46;;;;;;;0.80;0.80;;;-1.40;69.40;;;-3.12;61.88;96769.38;5012562;28;20565;-34
2023/02/08 23:34:13;;;;;;;0.90;0.90;;;-1.40;69.40;;;-3.11;61.88;96759.03;5012674;28;20569;-34
2023/02/08 23:36:41;;;;;;;0.80;0.80;;;-1.40;69.50;;;-3.12;62.09;96751.41;5027842;28;20200;-34
2023/02/08 23:39:08;;;;;;;0.80;0.80;;;-1.40;69.70;;;-3.14;62.43;96756.59;5012264;28;20201;-34
2023/02/08 23:41:35;;;;;;;1.00;1.00;;;-1.40;69.80;;;-3.13;62.39;96753.13;5012394;28;20643;-32
2023/02/08 23:44:02;;;;;;;0.90;0.90;;;-1.40;69.80;;;-3.12;62.45;96748.84;5028140;28;20255;-33
2023/02/08 23:46:29;;;;;;;0.80;0.80;;;-1.40;70.10;;;-3.10;62.23;96741.91;5012364;28;20194;-34
2023/02/08 23:48:56;;;;;;;0.80;0.80;;;-1.50;69.80;;;-3.13;62.45;96742.03;5027498;28;20304;-34
2023/02/08 23:51:24;;;;;;;0.90;0.90;;;-1.40;70.00;;;-3.12;62.59;96744.53;5027677;28;20221;-33
2023/02/08 23:53:53;;;;;;;0.80;0.80;;;-1.40;70.10;;;-3.11;62.40;96735.94;5012106;28;20204;-36
2023/02/08 23:56:26;;;;;;;0.80;0.80;;;-1.40;70.10;;;-3.11;62.33;96732.56;5012130;28;20229;-32
2023/02/08 23:58:56;;;;;;;0.90;0.90;;;-1.40;70.20;;;-3.11;62.25;96735.94;5012009;28;20181;-32
